EGLL/LHR METAR and TAF weather

Enter ICAO airport designator
Station Type Date Time Source
EGLL METAR 2021/01/16 02:50 UTC NOAA

EGLL 160250Z AUTO 18009KT 9999 NCD 03/M01 Q1026 NOSIG


Station Type Date Time Source
EGLL Decoded METAR 2021/01/16 02:50 UTC NOAA

London / Heathrow Airport, United Kingdom (EGLL) 51-29N 000-27W 0M
Jan 15, 2021 - 09:50 PM EST / 2021.01.16 0250 UTC
Wind: from the S (180 degrees) at 10 MPH (9 KT):0
Visibility: greater than 7 mile(s):0
Temperature: 37 F (3 C)
Dew Point: 30 F (-1 C)
Relative Humidity: 74%
Pressure (altimeter): 30.30 in. Hg (1026 hPa)
ob: EGLL 160250Z AUTO 18009KT 9999 NCD 03/M01 Q1026 NOSIG
cycle: 3

Station Type Date Time Source
EGLL TAF 2021/01/15 18:09 UTC NOAA

TAF TAF EGLL 151658Z 1518/1624 11003KT 9999 FEW030 PROB40 1518/1524 6000
BECMG 1600/1603 17012KT
BECMG 1603/1606 6000 RA BKN006
TEMPO 1604/1610 16015G25KT 2000 RASN BKN003 PROB30
TEMPO 1605/1609 1000 +RASN
BECMG 1610/1613 23012KT
TEMPO 1610/1614 20015G25KT 3000 RADZ BKN004
BECMG 1613/1616 30010KT 9999 NSW FEW025

Example: see airport list